sensor_id;sensor_type;location;lat;lon;timestamp;pressure;altitude;pressure_sealevel;temperature;humidity
42771;BME280;28426;42.872;25.314;2024-01-27T00:01:23;97403.81;;;-0.08;73.16
42771;BME280;28426;42.872;25.314;2024-01-27T00:03:57;97413.34;;;-0.07;73.47
42771;BME280;28426;42.872;25.314;2024-01-27T00:06:28;97411.03;;;-0.12;73.64
42771;BME280;28426;42.872;25.314;2024-01-27T00:08:59;97421.88;;;-0.17;73.50
42771;BME280;28426;42.872;25.314;2024-01-27T00:11:30;97414.13;;;-0.18;73.47
42771;BME280;28426;42.872;25.314;2024-01-27T00:14:00;97420.22;;;-0.18;73.48
42771;BME280;28426;42.872;25.314;2024-01-27T00:16:31;97409.72;;;-0.18;73.32
42771;BME280;28426;42.872;25.314;2024-01-27T00:19:04;97407.31;;;-0.21;73.81
42771;BME280;28426;42.872;25.314;2024-01-27T00:21:35;97408.81;;;-0.05;74.24
42771;BME280;28426;42.872;25.314;2024-01-27T00:24:06;97409.34;;;0.00;70.25
42771;BME280;28426;42.872;25.314;2024-01-27T00:26:37;97415.38;;;-0.24;69.03
42771;BME280;28426;42.872;25.314;2024-01-27T00:29:08;97426.69;;;-0.61;71.62
42771;BME280;28426;42.872;25.314;2024-01-27T00:31:38;97430.97;;;-0.73;79.86
42771;BME280;28426;42.872;25.314;2024-01-27T00:34:12;97423.22;;;-0.61;79.80
42771;BME280;28426;42.872;25.314;2024-01-27T00:36:43;97422.78;;;-0.42;78.17
42771;BME280;28426;42.872;25.314;2024-01-27T00:39:16;97418.69;;;-0.46;72.92
42771;BME280;28426;42.872;25.314;2024-01-27T00:41:48;97411.06;;;-0.75;73.20
42771;BME280;28426;42.872;25.314;2024-01-27T00:44:19;97405.22;;;-1.05;76.20
42771;BME280;28426;42.872;25.314;2024-01-27T00:46:49;97393.06;;;-1.06;81.80
42771;BME280;28426;42.872;25.314;2024-01-27T00:49:23;97388.16;;;-0.98;81.44
42771;BME280;28426;42.872;25.314;2024-01-27T00:51:54;97380.25;;;-0.85;79.75
42771;BME280;28426;42.872;25.314;2024-01-27T00:54:25;97380.69;;;-0.78;78.61
42771;BME280;28426;42.872;25.314;2024-01-27T00:56:56;97381.19;;;-0.73;78.18
42771;BME280;28426;42.872;25.314;2024-01-27T00:59:26;97379.41;;;-0.72;77.19
42771;BME280;28426;42.872;25.314;2024-01-27T01:01:57;97369.56;;;-0.82;77.20
42771;BME280;28426;42.872;25.314;2024-01-27T01:04:30;97368.53;;;-1.05;77.07
42771;BME280;28426;42.872;25.314;2024-01-27T01:07:01;97370.22;;;-1.30;77.87
42771;BME280;28426;42.872;25.314;2024-01-27T01:09:32;97369.75;;;-1.50;79.55
42771;BME280;28426;42.872;25.314;2024-01-27T01:12:04;97362.53;;;-1.59;80.61
42771;BME280;28426;42.872;25.314;2024-01-27T01:14:35;97374.13;;;-1.63;81.17
42771;BME280;28426;42.872;25.314;2024-01-27T01:17:07;97362.00;;;-1.64;80.85
42771;BME280;28426;42.872;25.314;2024-01-27T01:19:41;97351.09;;;-1.71;80.91
42771;BME280;28426;42.872;25.314;2024-01-27T01:22:12;97364.63;;;-1.64;81.50
42771;BME280;28426;42.872;25.314;2024-01-27T01:24:43;97379.59;;;-1.66;80.82
42771;BME280;28426;42.872;25.314;2024-01-27T01:27:14;97374.38;;;-1.66;81.02
42771;BME280;28426;42.872;25.314;2024-01-27T01:29:43;97365.75;;;-1.68;81.05
42771;BME280;28426;42.872;25.314;2024-01-27T01:32:14;97364.09;;;-1.69;81.40
42771;BME280;28426;42.872;25.314;2024-01-27T01:34:48;97360.13;;;-1.62;81.97
42771;BME280;28426;42.872;25.314;2024-01-27T01:37:19;97356.34;;;-1.58;81.86
42771;BME280;28426;42.872;25.314;2024-01-27T01:39:50;97361.72;;;-1.47;82.20
42771;BME280;28426;42.872;25.314;2024-01-27T01:42:20;97346.44;;;-1.27;81.53
42771;BME280;28426;42.872;25.314;2024-01-27T01:44:52;97339.00;;;-1.07;81.08
42771;BME280;28426;42.872;25.314;2024-01-27T01:47:23;97334.06;;;-1.12;75.51
42771;BME280;28426;42.872;25.314;2024-01-27T01:49:57;97331.25;;;-1.48;73.05
42771;BME280;28426;42.872;25.314;2024-01-27T01:52:30;97330.34;;;-1.87;75.76
42771;BME280;28426;42.872;25.314;2024-01-27T01:55:01;97334.56;;;-2.12;79.58
42771;BME280;28426;42.872;25.314;2024-01-27T01:57:33;97336.09;;;-2.22;82.41
42771;BME280;28426;42.872;25.314;2024-01-27T02:00:05;97343.88;;;-2.08;86.95
42771;BME280;28426;42.872;25.314;2024-01-27T02:02:39;97342.72;;;-1.89;87.91
42771;BME280;28426;42.872;25.314;2024-01-27T02:05:13;97327.44;;;-1.82;81.60
42771;BME280;28426;42.872;25.314;2024-01-27T02:07:43;97330.63;;;-2.05;77.53
42771;BME280;28426;42.872;25.314;2024-01-27T02:10:15;97332.41;;;-2.33;79.06
42771;BME280;28426;42.872;25.314;2024-01-27T02:12:47;97328.50;;;-2.40;85.90
42771;BME280;28426;42.872;25.314;2024-01-27T02:15:18;97334.94;;;-2.31;86.91
42771;BME280;28426;42.872;25.314;2024-01-27T02:17:49;97331.41;;;-2.17;86.63
42771;BME280;28426;42.872;25.314;2024-01-27T02:20:23;97332.69;;;-2.10;85.81
42771;BME280;28426;42.872;25.314;2024-01-27T02:22:53;97337.53;;;-2.04;84.98
42771;BME280;28426;42.872;25.314;2024-01-27T02:25:27;97334.19;;;-2.06;83.54
42771;BME280;28426;42.872;25.314;2024-01-27T02:27:58;97330.28;;;-2.13;83.65
42771;BME280;28426;42.872;25.314;2024-01-27T02:30:30;97334.53;;;-2.25;83.74
42771;BME280;28426;42.872;25.314;2024-01-27T02:33:01;97329.44;;;-2.41;83.41
42771;BME280;28426;42.872;25.314;2024-01-27T02:35:32;97326.56;;;-2.51;84.09
42771;BME280;28426;42.872;25.314;2024-01-27T02:38:03;97322.78;;;-2.60;84.63
42771;BME280;28426;42.872;25.314;2024-01-27T02:40:36;97316.78;;;-2.62;85.25
42771;BME280;28426;42.872;25.314;2024-01-27T02:43:07;97307.19;;;-2.61;86.10
42771;BME280;28426;42.872;25.314;2024-01-27T02:45:38;97311.38;;;-2.59;86.21
42771;BME280;28426;42.872;25.314;2024-01-27T02:48:09;97308.59;;;-2.56;87.31
42771;BME280;28426;42.872;25.314;2024-01-27T02:50:40;97306.31;;;-2.47;87.84
42771;BME280;28426;42.872;25.314;2024-01-27T02:53:10;97303.94;;;-2.38;87.53
42771;BME280;28426;42.872;25.314;2024-01-27T02:55:44;97302.72;;;-2.32;86.77
42771;BME280;28426;42.872;25.314;2024-01-27T02:58:15;97298.44;;;-2.33;86.09
42771;BME280;28426;42.872;25.314;2024-01-27T03:00:45;97312.63;;;-2.37;86.06
42771;BME280;28426;42.872;25.314;2024-01-27T03:03:16;97317.09;;;-2.39;87.37
42771;BME280;28426;42.872;25.314;2024-01-27T03:05:47;97303.06;;;-2.24;88.41
42771;BME280;28426;42.872;25.314;2024-01-27T03:08:18;97303.94;;;-2.10;87.82
42771;BME280;28426;42.872;25.314;2024-01-27T03:10:52;97306.47;;;-1.95;87.19
42771;BME280;28426;42.872;25.314;2024-01-27T03:13:22;97295.22;;;-1.83;86.65
42771;BME280;28426;42.872;25.314;2024-01-27T03:15:53;97292.69;;;-1.72;86.08
42771;BME280;28426;42.872;25.314;2024-01-27T03:22:06;97251.47;;;-1.55;84.34
42771;BME280;28426;42.872;25.314;2024-01-27T03:28:03;97261.50;;;-1.23;82.37
42771;BME280;28426;42.872;25.314;2024-01-27T03:30:34;97268.31;;;-1.33;81.76
42771;BME280;28426;42.872;25.314;2024-01-27T03:33:05;97277.75;;;-1.43;82.14
42771;BME280;28426;42.872;25.314;2024-01-27T03:35:39;97268.84;;;-1.54;82.74
42771;BME280;28426;42.872;25.314;2024-01-27T03:38:10;97267.69;;;-1.63;83.09
42771;BME280;28426;42.872;25.314;2024-01-27T03:40:41;97248.00;;;-1.68;83.69
42771;BME280;28426;42.872;25.314;2024-01-27T03:43:14;97262.78;;;-1.54;84.31
42771;BME280;28426;42.872;25.314;2024-01-27T03:45:45;97261.41;;;-1.47;82.62
42771;BME280;28426;42.872;25.314;2024-01-27T03:48:17;97249.47;;;-1.51;82.22
42771;BME280;28426;42.872;25.314;2024-01-27T03:50:48;97255.22;;;-1.59;82.99
42771;BME280;28426;42.872;25.314;2024-01-27T03:53:19;97253.16;;;-1.67;83.75
42771;BME280;28426;42.872;25.314;2024-01-27T03:55:50;97260.38;;;-1.71;84.54
42771;BME280;28426;42.872;25.314;2024-01-27T03:58:24;97246.88;;;-1.77;84.77
42771;BME280;28426;42.872;25.314;2024-01-27T04:00:58;97251.25;;;-1.65;85.27
42771;BME280;28426;42.872;25.314;2024-01-27T04:03:29;97257.88;;;-1.46;84.78
42771;BME280;28426;42.872;25.314;2024-01-27T04:06:00;97237.84;;;-1.34;82.36
42771;BME280;28426;42.872;25.314;2024-01-27T04:08:32;97232.38;;;-1.31;81.39
42771;BME280;28426;42.872;25.314;2024-01-27T04:11:03;97231.56;;;-1.32;81.93
42771;BME280;28426;42.872;25.314;2024-01-27T04:13:37;97228.09;;;-1.32;81.73
42771;BME280;28426;42.872;25.314;2024-01-27T04:16:07;97220.34;;;-1.34;81.53
42771;BME280;28426;42.872;25.314;2024-01-27T04:18:39;97220.66;;;-1.25;81.96
42771;BME280;28426;42.872;25.314;2024-01-27T04:21:10;97212.44;;;-1.08;82.02
42771;BME280;28426;42.872;25.314;2024-01-27T04:23:41;97214.75;;;-1.03;80.49
42771;BME280;28426;42.872;25.314;2024-01-27T04:26:12;97196.66;;;-1.19;79.80
42771;BME280;28426;42.872;25.314;2024-01-27T04:28:45;97214.66;;;-1.14;80.72
42771;BME280;28426;42.872;25.314;2024-01-27T04:31:16;97217.28;;;-1.14;80.33
42771;BME280;28426;42.872;25.314;2024-01-27T04:33:47;97206.41;;;-1.21;80.19
42771;BME280;28426;42.872;25.314;2024-01-27T04:36:25;97205.03;;;-1.14;80.08
42771;BME280;28426;42.872;25.314;2024-01-27T04:38:57;97206.81;;;-1.14;79.98
42771;BME280;28426;42.872;25.314;2024-01-27T04:41:28;97202.56;;;-1.04;80.80
42771;BME280;28426;42.872;25.314;2024-01-27T04:44:01;97199.81;;;-0.89;79.85
42771;BME280;28426;42.872;25.314;2024-01-27T04:46:32;97201.38;;;-0.87;78.42
42771;BME280;28426;42.872;25.314;2024-01-27T04:49:03;97196.34;;;-0.90;78.60
42771;BME280;28426;42.872;25.314;2024-01-27T04:51:34;97177.34;;;-1.05;78.75
42771;BME280;28426;42.872;25.314;2024-01-27T04:54:05;97189.25;;;-1.01;78.75
42771;BME280;28426;42.872;25.314;2024-01-27T04:56:36;97194.28;;;-0.98;78.83
42771;BME280;28426;42.872;25.314;2024-01-27T04:59:10;97197.13;;;-1.01;79.24
42771;BME280;28426;42.872;25.314;2024-01-27T05:01:44;97193.06;;;-1.05;78.92
42771;BME280;28426;42.872;25.314;2024-01-27T05:04:15;97211.13;;;-0.89;79.81
42771;BME280;28426;42.872;25.314;2024-01-27T05:06:46;97208.56;;;-0.77;78.79
42771;BME280;28426;42.872;25.314;2024-01-27T05:09:17;97209.41;;;-0.77;77.74
42771;BME280;28426;42.872;25.314;2024-01-27T05:11:48;97205.88;;;-0.89;78.68
42771;BME280;28426;42.872;25.314;2024-01-27T05:14:24;97211.38;;;-0.92;79.55
42771;BME280;28426;42.872;25.314;2024-01-27T05:16:55;97205.78;;;-0.87;80.19
42771;BME280;28426;42.872;25.314;2024-01-27T05:19:26;97208.69;;;-0.79;79.90
42771;BME280;28426;42.872;25.314;2024-01-27T05:21:57;97204.16;;;-0.53;79.89
42771;BME280;28426;42.872;25.314;2024-01-27T05:24:28;97205.81;;;-0.27;76.51
42771;BME280;28426;42.872;25.314;2024-01-27T05:26:59;97202.47;;;-0.29;77.09
42771;BME280;28426;42.872;25.314;2024-01-27T05:29:33;97208.59;;;-0.42;76.68
42771;BME280;28426;42.872;25.314;2024-01-27T05:32:05;97205.31;;;-0.57;76.91
42771;BME280;28426;42.872;25.314;2024-01-27T05:34:36;97212.09;;;-0.66;77.74
42771;BME280;28426;42.872;25.314;2024-01-27T05:37:08;97217.53;;;-0.69;77.73
42771;BME280;28426;42.872;25.314;2024-01-27T05:39:40;97218.00;;;-0.75;78.15
42771;BME280;28426;42.872;25.314;2024-01-27T05:42:11;97221.69;;;-0.77;78.45
42771;BME280;28426;42.872;25.314;2024-01-27T05:44:45;97234.19;;;-0.81;78.59
42771;BME280;28426;42.872;25.314;2024-01-27T05:47:16;97243.81;;;-0.82;78.56
42771;BME280;28426;42.872;25.314;2024-01-27T05:49:47;97266.53;;;-0.82;79.00
42771;BME280;28426;42.872;25.314;2024-01-27T05:52:19;97255.34;;;-0.84;79.20
42771;BME280;28426;42.872;25.314;2024-01-27T05:54:52;97262.88;;;-0.80;79.98
42771;BME280;28426;42.872;25.314;2024-01-27T05:57:23;97254.13;;;-0.67;79.68
42771;BME280;28426;42.872;25.314;2024-01-27T06:00:00;97271.81;;;-0.58;79.09
42771;BME280;28426;42.872;25.314;2024-01-27T06:02:32;97263.22;;;-0.60;79.54
42771;BME280;28426;42.872;25.314;2024-01-27T06:05:04;97268.59;;;-0.61;80.90
42771;BME280;28426;42.872;25.314;2024-01-27T06:07:37;97257.25;;;-0.62;81.76
42771;BME280;28426;42.872;25.314;2024-01-27T06:10:09;97241.22;;;-0.57;82.62
42771;BME280;28426;42.872;25.314;2024-01-27T06:12:40;97258.16;;;-0.50;83.56
42771;BME280;28426;42.872;25.314;2024-01-27T06:15:14;97252.38;;;-0.42;83.55
42771;BME280;28426;42.872;25.314;2024-01-27T06:17:47;97265.13;;;-0.37;83.72
42771;BME280;28426;42.872;25.314;2024-01-27T06:20:22;97257.81;;;-0.21;84.67
42771;BME280;28426;42.872;25.314;2024-01-27T06:22:53;97261.91;;;-0.05;83.84
42771;BME280;28426;42.872;25.314;2024-01-27T06:25:24;97253.31;;;-0.07;82.86
42771;BME280;28426;42.872;25.314;2024-01-27T06:27:55;97263.94;;;-0.09;83.57
42771;BME280;28426;42.872;25.314;2024-01-27T06:30:29;97260.44;;;-0.21;85.53
42771;BME280;28426;42.872;25.314;2024-01-27T06:33:01;97240.72;;;-0.38;87.03
42771;BME280;28426;42.872;25.314;2024-01-27T06:35:40;97254.13;;;-0.43;88.53
42771;BME280;28426;42.872;25.314;2024-01-27T06:38:40;97249.88;;;-0.57;88.91
42771;BME280;28426;42.872;25.314;2024-01-27T06:41:11;97251.63;;;-0.44;91.93
42771;BME280;28426;42.872;25.314;2024-01-27T06:43:43;97245.56;;;-0.45;89.20
42771;BME280;28426;42.872;25.314;2024-01-27T06:46:28;97241.09;;;-0.56;89.25
42771;BME280;28426;42.872;25.314;2024-01-27T06:49:01;97241.41;;;-0.60;89.88
42771;BME280;28426;42.872;25.314;2024-01-27T06:51:33;97239.81;;;-0.74;90.62
42771;BME280;28426;42.872;25.314;2024-01-27T06:54:04;97237.63;;;-0.81;91.47
42771;BME280;28426;42.872;25.314;2024-01-27T06:56:36;97209.16;;;-0.98;92.56
42771;BME280;28426;42.872;25.314;2024-01-27T06:59:07;97236.09;;;-0.96;93.52
42771;BME280;28426;42.872;25.314;2024-01-27T07:01:45;97233.78;;;-1.01;93.48
42771;BME280;28426;42.872;25.314;2024-01-27T07:04:16;97230.75;;;-0.95;96.82
42771;BME280;28426;42.872;25.314;2024-01-27T07:06:48;97207.78;;;-0.91;98.76
42771;BME280;28426;42.872;25.314;2024-01-27T07:09:19;97222.28;;;-0.74;98.15
42771;BME280;28426;42.872;25.314;2024-01-27T07:11:50;97216.34;;;-0.76;96.12
42771;BME280;28426;42.872;25.314;2024-01-27T07:14:21;97210.81;;;-0.84;94.60
42771;BME280;28426;42.872;25.314;2024-01-27T07:16:55;97201.94;;;-0.95;94.39
42771;BME280;28426;42.872;25.314;2024-01-27T07:19:26;97190.66;;;-1.08;94.82
42771;BME280;28426;42.872;25.314;2024-01-27T07:21:57;97184.25;;;-1.04;96.28
42771;BME280;28426;42.872;25.314;2024-01-27T07:24:28;97195.91;;;-1.08;96.81
42771;BME280;28426;42.872;25.314;2024-01-27T07:27:00;97185.63;;;-1.11;97.17
42771;BME280;28426;42.872;25.314;2024-01-27T07:29:31;97200.91;;;-1.05;97.78
42771;BME280;28426;42.872;25.314;2024-01-27T07:32:05;97182.38;;;-1.02;98.61
42771;BME280;28426;42.872;25.314;2024-01-27T07:34:41;97190.16;;;-0.89;100.00
42771;BME280;28426;42.872;25.314;2024-01-27T07:37:12;97192.25;;;-0.81;99.75
42771;BME280;28426;42.872;25.314;2024-01-27T07:39:43;97186.16;;;-0.82;98.71
42771;BME280;28426;42.872;25.314;2024-01-27T07:42:14;97181.97;;;-0.84;98.53
42771;BME280;28426;42.872;25.314;2024-01-27T07:44:45;97176.13;;;-0.88;98.16
42771;BME280;28426;42.872;25.314;2024-01-27T07:47:21;97172.19;;;-0.94;98.51
42771;BME280;28426;42.872;25.314;2024-01-27T07:49:52;97171.94;;;-0.90;99.42
42771;BME280;28426;42.872;25.314;2024-01-27T07:52:23;97174.13;;;-0.84;100.00
42771;BME280;28426;42.872;25.314;2024-01-27T07:54:54;97169.66;;;-0.71;100.00
42771;BME280;28426;42.872;25.314;2024-01-27T07:57:25;97164.22;;;-0.68;100.00
42771;BME280;28426;42.872;25.314;2024-01-27T07:59:56;97176.47;;;-0.68;100.00
42771;BME280;28426;42.872;25.314;2024-01-27T08:02:34;97182.75;;;-0.71;99.61
42771;BME280;28426;42.872;25.314;2024-01-27T08:05:05;97181.09;;;-0.72;99.96
42771;BME280;28426;42.872;25.314;2024-01-27T08:07:38;97177.03;;;-0.76;100.00
42771;BME280;28426;42.872;25.314;2024-01-27T08:10:09;97182.03;;;-0.73;100.00
42771;BME280;28426;42.872;25.314;2024-01-27T08:12:40;97174.63;;;-0.79;100.00
42771;BME280;28426;42.872;25.314;2024-01-27T08:15:12;97180.97;;;-0.70;100.00
42771;BME280;28426;42.872;25.314;2024-01-27T08:17:46;97184.59;;;-0.60;100.00
42771;BME280;28426;42.872;25.314;2024-01-27T08:20:17;97192.28;;;-0.45;100.00
42771;BME280;28426;42.872;25.314;2024-01-27T08:22:47;97185.97;;;-0.43;100.00
42771;BME280;28426;42.872;25.314;2024-01-27T08:25:19;97182.25;;;-0.51;100.00
42771;BME280;28426;42.872;25.314;2024-01-27T08:27:50;97188.44;;;-0.53;100.00
42771;BME280;28426;42.872;25.314;2024-01-27T08:30:21;97172.78;;;-0.66;100.00
42771;BME280;28426;42.872;25.314;2024-01-27T08:32:54;97185.88;;;-0.66;100.00
42771;BME280;28426;42.872;25.314;2024-01-27T08:35:25;97197.59;;;-0.58;100.00
42771;BME280;28426;42.872;25.314;2024-01-27T08:37:56;97211.53;;;-0.58;100.00
42771;BME280;28426;42.872;25.314;2024-01-27T08:40:27;97192.56;;;-0.61;100.00
42771;BME280;28426;42.872;25.314;2024-01-27T08:42:59;97200.22;;;-0.58;100.00
42771;BME280;28426;42.872;25.314;2024-01-27T08:45:30;97210.25;;;-0.52;100.00
42771;BME280;28426;42.872;25.314;2024-01-27T08:48:06;97200.94;;;-0.56;100.00
42771;BME280;28426;42.872;25.314;2024-01-27T08:50:39;97208.59;;;-0.42;100.00
42771;BME280;28426;42.872;25.314;2024-01-27T08:53:10;97210.00;;;-0.24;100.00
42771;BME280;28426;42.872;25.314;2024-01-27T08:55:41;97224.88;;;-0.25;100.00
42771;BME280;28426;42.872;25.314;2024-01-27T08:58:12;97212.47;;;-0.34;100.00
42771;BME280;28426;42.872;25.314;2024-01-27T09:00:43;97221.78;;;-0.30;100.00
42771;BME280;28426;42.872;25.314;2024-01-27T09:03:17;97212.94;;;-0.29;100.00
42771;BME280;28426;42.872;25.314;2024-01-27T09:05:48;97223.34;;;-0.16;100.00
42771;BME280;28426;42.872;25.314;2024-01-27T09:08:20;97228.06;;;-0.08;100.00
42771;BME280;28426;42.872;25.314;2024-01-27T09:10:51;97212.31;;;0.03;100.00
42771;BME280;28426;42.872;25.314;2024-01-27T09:13:23;97215.47;;;0.20;100.00
42771;BME280;28426;42.872;25.314;2024-01-27T09:15:55;97213.94;;;0.40;100.00
42771;BME280;28426;42.872;25.314;2024-01-27T09:18:29;97220.03;;;0.63;100.00
42771;BME280;28426;42.872;25.314;2024-01-27T09:21:00;97219.69;;;0.80;100.00
42771;BME280;28426;42.872;25.314;2024-01-27T09:23:31;97216.78;;;0.83;100.00
42771;BME280;28426;42.872;25.314;2024-01-27T09:26:02;97219.53;;;0.93;100.00
42771;BME280;28426;42.872;25.314;2024-01-27T09:28:33;97212.84;;;0.88;100.00
42771;BME280;28426;42.872;25.314;2024-01-27T09:31:05;97226.56;;;1.03;100.00
42771;BME280;28426;42.872;25.314;2024-01-27T09:33:39;97236.81;;;1.18;100.00
42771;BME280;28426;42.872;25.314;2024-01-27T09:36:10;97223.22;;;1.13;100.00
42771;BME280;28426;42.872;25.314;2024-01-27T09:38:41;97231.69;;;1.16;100.00
42771;BME280;28426;42.872;25.314;2024-01-27T09:41:15;97223.31;;;1.11;100.00
42771;BME280;28426;42.872;25.314;2024-01-27T09:43:47;97236.47;;;1.23;100.00
42771;BME280;28426;42.872;25.314;2024-01-27T09:46:18;97226.88;;;1.33;100.00
42771;BME280;28426;42.872;25.314;2024-01-27T09:48:52;97233.06;;;1.43;100.00
42771;BME280;28426;42.872;25.314;2024-01-27T09:51:24;97242.13;;;1.39;100.00
42771;BME280;28426;42.872;25.314;2024-01-27T09:53:57;97229.63;;;1.32;100.00
42771;BME280;28426;42.872;25.314;2024-01-27T09:56:29;97224.88;;;1.25;100.00
42771;BME280;28426;42.872;25.314;2024-01-27T09:59:01;97229.75;;;1.30;100.00
42771;BME280;28426;42.872;25.314;2024-01-27T10:01:33;97228.81;;;1.31;100.00
42771;BME280;28426;42.872;25.314;2024-01-27T10:04:10;97227.44;;;1.37;100.00
42771;BME280;28426;42.872;25.314;2024-01-27T10:06:41;97231.97;;;1.46;100.00
42771;BME280;28426;42.872;25.314;2024-01-27T10:09:12;97234.81;;;1.54;100.00
42771;BME280;28426;42.872;25.314;2024-01-27T10:11:46;97230.88;;;1.49;100.00
42771;BME280;28426;42.872;25.314;2024-01-27T10:14:17;97225.88;;;1.46;100.00
42771;BME280;28426;42.872;25.314;2024-01-27T10:16:48;97226.13;;;1.42;100.00
42771;BME280;28426;42.872;25.314;2024-01-27T10:19:22;97222.53;;;1.43;100.00
42771;BME280;28426;42.872;25.314;2024-01-27T10:22:00;97236.81;;;1.62;100.00
42771;BME280;28426;42.872;25.314;2024-01-27T10:24:32;97234.66;;;1.67;100.00
42771;BME280;28426;42.872;25.314;2024-01-27T10:27:04;97241.00;;;1.65;100.00
42771;BME280;28426;42.872;25.314;2024-01-27T10:29:35;97237.78;;;1.61;99.61
42771;BME280;28426;42.872;25.314;2024-01-27T10:32:10;97235.25;;;1.60;99.64
42771;BME280;28426;42.872;25.314;2024-01-27T10:34:44;97238.75;;;1.60;99.55
42771;BME280;28426;42.872;25.314;2024-01-27T10:37:15;97251.03;;;1.60;99.53
42771;BME280;28426;42.872;25.314;2024-01-27T10:39:47;97243.03;;;1.61;99.39
42771;BME280;28426;42.872;25.314;2024-01-27T10:42:18;97236.13;;;1.60;99.13
42771;BME280;28426;42.872;25.314;2024-01-27T10:44:50;97232.97;;;1.66;100.00
42771;BME280;28426;42.872;25.314;2024-01-27T10:47:21;97250.84;;;1.84;99.97
42771;BME280;28426;42.872;25.314;2024-01-27T10:49:58;97254.06;;;1.88;96.57
42771;BME280;28426;42.872;25.314;2024-01-27T10:52:32;97249.50;;;1.90;95.63
42771;BME280;28426;42.872;25.314;2024-01-27T10:55:05;97253.94;;;1.89;97.47
42771;BME280;28426;42.872;25.314;2024-01-27T10:57:37;97256.16;;;2.05;99.44
42771;BME280;28426;42.872;25.314;2024-01-27T11:00:08;97245.22;;;2.10;95.00
42771;BME280;28426;42.872;25.314;2024-01-27T11:02:40;97258.63;;;2.07;94.44
42771;BME280;28426;42.872;25.314;2024-01-27T11:05:14;97260.94;;;2.00;94.30
42771;BME280;28426;42.872;25.314;2024-01-27T11:07:46;97262.31;;;1.94;94.79
42771;BME280;28426;42.872;25.314;2024-01-27T11:10:19;97260.59;;;1.93;95.33
42771;BME280;28426;42.872;25.314;2024-01-27T11:12:50;97269.03;;;1.87;91.48
42771;BME280;28426;42.872;25.314;2024-01-27T11:15:22;97268.31;;;1.85;97.54
42771;BME280;28426;42.872;25.314;2024-01-27T11:17:57;97260.75;;;1.92;97.88
42771;BME280;28426;42.872;25.314;2024-01-27T11:20:34;97268.50;;;1.93;93.37
42771;BME280;28426;42.872;25.314;2024-01-27T11:23:09;97264.53;;;1.66;88.96
42771;BME280;28426;42.872;25.314;2024-01-27T11:25:42;97255.91;;;1.32;90.54
42771;BME280;28426;42.872;25.314;2024-01-27T11:28:14;97270.03;;;1.30;98.43
42771;BME280;28426;42.872;25.314;2024-01-27T11:30:48;97262.25;;;1.40;100.00
42771;BME280;28426;42.872;25.314;2024-01-27T11:33:19;97278.19;;;1.60;100.00
42771;BME280;28426;42.872;25.314;2024-01-27T11:36:03;97269.22;;;1.63;100.00
42771;BME280;28426;42.872;25.314;2024-01-27T11:38:35;97266.47;;;1.64;99.76
42771;BME280;28426;42.872;25.314;2024-01-27T11:41:07;97275.81;;;1.57;98.06
42771;BME280;28426;42.872;25.314;2024-01-27T11:43:38;97272.38;;;1.45;96.89
42771;BME280;28426;42.872;25.314;2024-01-27T11:46:10;97294.50;;;1.42;98.21
42771;BME280;28426;42.872;25.314;2024-01-27T11:48:42;97292.59;;;1.45;99.31
42771;BME280;28426;42.872;25.314;2024-01-27T11:51:17;97296.66;;;1.37;99.41
42771;BME280;28426;42.872;25.314;2024-01-27T11:53:51;97303.13;;;1.45;100.00
42771;BME280;28426;42.872;25.314;2024-01-27T11:56:23;97311.81;;;1.45;100.00
42771;BME280;28426;42.872;25.314;2024-01-27T11:58:54;97305.25;;;1.39;100.00
42771;BME280;28426;42.872;25.314;2024-01-27T12:01:25;97303.34;;;1.41;100.00
42771;BME280;28426;42.872;25.314;2024-01-27T12:03:56;97304.50;;;1.49;100.00
42771;BME280;28426;42.872;25.314;2024-01-27T12:06:30;97302.72;;;1.49;100.00
42771;BME280;28426;42.872;25.314;2024-01-27T12:09:05;97311.47;;;1.50;100.00
42771;BME280;28426;42.872;25.314;2024-01-27T12:11:39;97305.97;;;1.41;100.00
42771;BME280;28426;42.872;25.314;2024-01-27T12:14:10;97312.22;;;1.40;100.00
42771;BME280;28426;42.872;25.314;2024-01-27T12:16:41;97295.72;;;1.27;100.00
42771;BME280;28426;42.872;25.314;2024-01-27T12:19:16;97314.22;;;1.37;100.00
42771;BME280;28426;42.872;25.314;2024-01-27T12:21:50;97298.22;;;1.28;100.00
42771;BME280;28426;42.872;25.314;2024-01-27T12:24:24;97303.84;;;1.12;97.26
42771;BME280;28426;42.872;25.314;2024-01-27T12:26:55;97318.66;;;1.02;96.89
42771;BME280;28426;42.872;25.314;2024-01-27T12:29:27;97309.72;;;0.93;98.83
42771;BME280;28426;42.872;25.314;2024-01-27T12:31:58;97311.25;;;0.84;98.65
42771;BME280;28426;42.872;25.314;2024-01-27T12:34:29;97317.22;;;0.75;98.64
42771;BME280;28426;42.872;25.314;2024-01-27T12:37:03;97319.13;;;0.73;99.38
42771;BME280;28426;42.872;25.314;2024-01-27T12:39:34;97320.81;;;0.74;100.00
42771;BME280;28426;42.872;25.314;2024-01-27T12:42:06;97326.06;;;0.74;100.00
42771;BME280;28426;42.872;25.314;2024-01-27T12:44:43;97329.53;;;0.86;100.00
42771;BME280;28426;42.872;25.314;2024-01-27T12:47:14;97329.03;;;0.92;100.00
42771;BME280;28426;42.872;25.314;2024-01-27T12:49:47;97321.91;;;0.94;100.00
42771;BME280;28426;42.872;25.314;2024-01-27T12:52:21;97339.22;;;1.08;100.00
42771;BME280;28426;42.872;25.314;2024-01-27T12:54:52;97336.94;;;1.03;99.64
42771;BME280;28426;42.872;25.314;2024-01-27T12:57:29;97336.81;;;0.94;97.93
42771;BME280;28426;42.872;25.314;2024-01-27T13:00:00;97342.34;;;0.90;98.67
42771;BME280;28426;42.872;25.314;2024-01-27T13:02:37;97334.19;;;0.82;99.33
42771;BME280;28426;42.872;25.314;2024-01-27T13:05:08;97335.50;;;0.76;99.30
42771;BME280;28426;42.872;25.314;2024-01-27T13:07:43;97352.09;;;0.88;100.00
42771;BME280;28426;42.872;25.314;2024-01-27T13:10:16;97344.34;;;0.87;100.00
42771;BME280;28426;42.872;25.314;2024-01-27T13:12:47;97356.06;;;1.06;100.00
42771;BME280;28426;42.872;25.314;2024-01-27T13:15:18;97360.38;;;1.18;100.00
42771;BME280;28426;42.872;25.314;2024-01-27T13:17:50;97359.91;;;1.24;100.00
42771;BME280;28426;42.872;25.314;2024-01-27T13:20:21;97348.53;;;1.24;100.00
42771;BME280;28426;42.872;25.314;2024-01-27T13:22:55;97370.50;;;1.34;99.29